Terminal Aerodrome Forecast
Issued by NWS Key West, FL

Home | Current Version | Previous Version | Text Only | Print | Product List | Glossary On
Versions: 1 2 3 4 5 6 7 8 9 10 11 12 13 14 15 16 17 18 19 20 21 22 23 24 25 26 27 28 29 30
000
FTUS42 KKEY 261134
TAFEYW
TAF
KEYW 261134Z 2612/2712 13011KT P6SM -RA SCT015 SCT060 OVC070
      TEMPO 2613/2616 13018G28KT 3SM +SHRA BR BKN015 BKN040
     FM261600 13017G28KT 5SM -RA VCSH SCT015 BKN040 OVC060
      TEMPO 2616/2620 15020G30KT 1SM SHRA BR BKN012 OVC040
     FM262000 15020G32KT 5SM -RA VCTS OVC015CB PROB30 2621/2703
      17025G38KT 1/2SM +TSRA FG BKN012CB OVC030=

USA.gov is the U.S. government's official web portal to all federal, state and local government web resources and services.